createdAt,value
2018-11-06T00:02:12.341Z,26.80
2018-11-06T00:04:45.074Z,25.30
2018-11-06T00:07:12.538Z,30.77
2018-11-06T00:09:40.351Z,24.45
2018-11-06T00:12:07.831Z,30.27
2018-11-06T00:14:35.279Z,22.97
2018-11-06T00:17:02.775Z,27.77
2018-11-06T00:19:30.214Z,26.63
2018-11-06T00:21:57.667Z,33.00
2018-11-06T00:24:25.115Z,24.27
2018-11-06T00:26:52.684Z,27.07
2018-11-06T00:29:20.131Z,31.77
2018-11-06T00:31:47.579Z,27.27
2018-11-06T00:34:15.312Z,31.20
2018-11-06T00:36:42.723Z,28.37
2018-11-06T00:39:10.582Z,27.07
2018-11-06T00:41:38.072Z,30.27
2018-11-06T00:44:05.508Z,27.32
2018-11-06T00:46:32.968Z,25.77
2018-11-06T00:49:00.406Z,25.12
2018-11-06T00:51:27.895Z,31.60
2018-11-06T00:53:55.353Z,29.60
2018-11-06T00:56:22.809Z,26.50
2018-11-06T00:58:50.252Z,27.87
2018-11-06T01:01:17.691Z,27.57
2018-11-06T01:03:54.375Z,28.32
2018-11-06T01:06:22.007Z,31.60
2018-11-06T01:08:49.467Z,27.55
2018-11-06T01:11:16.911Z,33.43
2018-11-06T01:13:44.511Z,28.67
2018-11-06T01:16:11.967Z,30.23
2018-11-06T01:18:39.410Z,27.40
2018-11-06T01:21:06.857Z,35.00
2018-11-06T01:23:34.287Z,30.17
2018-11-06T01:26:01.750Z,30.40
2018-11-06T01:28:29.191Z,32.43
2018-11-06T01:30:56.651Z,30.17
2018-11-06T01:33:24.098Z,32.33
2018-11-06T01:35:51.547Z,30.15
2018-11-06T01:38:18.987Z,33.17
2018-11-06T01:40:46.430Z,32.17
2018-11-06T01:43:13.866Z,34.40
2018-11-06T01:45:41.358Z,31.93
2018-11-06T01:48:08.839Z,34.07
2018-11-06T01:50:36.278Z,34.70
2018-11-06T01:53:03.721Z,28.93
2018-11-06T01:55:31.171Z,33.48
2018-11-06T01:57:58.645Z,30.80
2018-11-06T02:00:26.090Z,34.35
2018-11-06T02:02:53.541Z,33.47
2018-11-06T02:05:20.990Z,33.85
2018-11-06T02:07:49.506Z,31.67
2018-11-06T02:10:17.385Z,31.13
2018-11-06T02:12:45.742Z,30.27
2018-11-06T02:15:13.835Z,29.10
2018-11-06T02:17:42.605Z,31.73
2018-11-06T02:20:10.975Z,33.50
2018-11-06T02:22:38.750Z,29.73
2018-11-06T02:25:06.315Z,31.77
2018-11-06T02:27:33.766Z,32.07
2018-11-06T02:30:01.362Z,33.17
2018-11-06T02:32:28.924Z,34.27
2018-11-06T02:34:56.289Z,37.93
2018-11-06T02:37:23.815Z,36.47
2018-11-06T02:39:51.263Z,36.07
2018-11-06T02:42:18.706Z,36.07
2018-11-06T02:44:46.162Z,37.17
2018-11-06T02:47:13.622Z,36.43
2018-11-06T02:49:41.099Z,32.48
2018-11-06T02:52:08.566Z,33.73
2018-11-06T02:54:36.311Z,32.25
2018-11-06T02:57:03.787Z,33.37
2018-11-06T02:59:31.235Z,34.55
2018-11-06T03:01:58.786Z,39.17
2018-11-06T03:04:26.274Z,36.98
2018-11-06T03:06:53.727Z,34.30
2018-11-06T03:09:21.398Z,31.40
2018-11-06T03:11:48.857Z,37.30
2018-11-06T03:14:16.293Z,31.37
2018-11-06T03:16:43.773Z,32.73
2018-11-06T03:19:11.203Z,36.10
2018-11-06T03:21:38.665Z,33.85
2018-11-06T03:24:06.434Z,36.03
2018-11-06T03:26:33.919Z,30.80
2018-11-06T03:29:01.380Z,28.42
2018-11-06T03:31:28.838Z,31.93
2018-11-06T03:33:56.275Z,35.40
2018-11-06T03:36:23.707Z,27.83
2018-11-06T03:38:51.158Z,31.02
2018-11-06T03:41:18.620Z,32.57
2018-11-06T03:43:46.107Z,31.87
2018-11-06T03:46:13.513Z,34.20
2018-11-06T03:48:40.947Z,33.07
2018-11-06T03:51:08.437Z,31.47
2018-11-06T03:53:36.002Z,33.25
2018-11-06T03:56:03.455Z,31.17
2018-11-06T03:58:30.979Z,32.23
2018-11-06T04:00:58.418Z,31.67
2018-11-06T04:03:25.882Z,33.27
2018-11-06T04:05:53.365Z,33.60
2018-11-06T04:08:20.818Z,31.17
2018-11-06T04:10:48.258Z,31.57
2018-11-06T04:13:15.701Z,32.83
2018-11-06T04:15:43.145Z,35.60
2018-11-06T04:18:10.600Z,30.93
2018-11-06T04:20:38.112Z,32.35
2018-11-06T04:23:05.593Z,32.47
2018-11-06T04:25:33.034Z,28.98
2018-11-06T04:28:00.477Z,32.90
2018-11-06T04:30:27.909Z,34.50
2018-11-06T04:32:55.350Z,32.90
2018-11-06T04:35:22.826Z,30.20
2018-11-06T04:37:50.966Z,29.83
2018-11-06T04:40:18.417Z,31.43
2018-11-06T04:42:45.942Z,33.37
2018-11-06T04:45:13.851Z,31.33
2018-11-06T04:47:41.341Z,37.07
2018-11-06T04:50:10.412Z,32.33
2018-11-06T04:52:38.023Z,32.93
2018-11-06T04:55:05.466Z,33.20
2018-11-06T04:57:32.930Z,34.90
2018-11-06T05:00:00.389Z,31.97
2018-11-06T05:02:27.825Z,33.80
2018-11-06T05:04:55.270Z,32.27
2018-11-06T05:07:22.714Z,35.58
2018-11-06T05:09:50.168Z,38.30
2018-11-06T05:12:17.699Z,34.60
2018-11-06T05:14:45.402Z,32.67
2018-11-06T05:17:12.837Z,33.13
2018-11-06T05:19:40.708Z,30.60
2018-11-06T05:22:08.157Z,30.73
2018-11-06T05:24:35.610Z,36.63
2018-11-06T05:27:03.916Z,35.27
2018-11-06T05:29:31.364Z,32.30
2018-11-06T05:31:58.832Z,31.07
2018-11-06T05:34:26.278Z,32.10
2018-11-06T05:36:53.765Z,33.30
2018-11-06T05:39:21.269Z,38.78
2018-11-06T05:41:48.682Z,36.97
2018-11-06T05:44:16.130Z,33.15
2018-11-06T05:46:43.594Z,30.83
2018-11-06T05:49:11.049Z,31.60
2018-11-06T05:51:38.614Z,36.13
2018-11-06T05:54:06.109Z,39.03
2018-11-06T05:56:33.558Z,40.17
2018-11-06T05:59:00.999Z,36.80
2018-11-06T06:01:28.735Z,34.27
2018-11-06T06:03:56.177Z,40.33
2018-11-06T06:06:23.613Z,37.80
2018-11-06T06:08:51.070Z,39.27
2018-11-06T06:11:18.565Z,38.70
2018-11-06T06:13:45.986Z,36.58
2018-11-06T06:16:13.506Z,34.90
2018-11-06T06:18:40.959Z,36.53
2018-11-06T06:21:08.396Z,33.20
2018-11-06T06:23:35.988Z,40.73
2018-11-06T06:26:03.580Z,36.53
2018-11-06T06:28:31.187Z,35.60
2018-11-06T06:30:58.558Z,35.88
2018-11-06T06:33:26.014Z,33.00
2018-11-06T06:35:53.465Z,35.68
2018-11-06T06:38:20.911Z,38.10
2018-11-06T06:40:48.402Z,33.02
2018-11-06T06:43:15.820Z,36.97
2018-11-06T06:45:43.265Z,35.68
2018-11-06T06:48:10.791Z,33.83
2018-11-06T06:50:38.230Z,36.30
2018-11-06T06:53:05.691Z,36.93
2018-11-06T06:55:33.145Z,39.63
2018-11-06T06:58:00.599Z,32.93
2018-11-06T07:00:28.048Z,33.28
2018-11-06T07:02:55.494Z,33.87
2018-11-06T07:05:23.762Z,33.53
2018-11-06T07:07:51.214Z,32.20
2018-11-06T07:10:20.929Z,36.83
2018-11-06T07:12:48.500Z,34.37
2018-11-06T07:15:17.066Z,38.13
2018-11-06T07:17:45.350Z,33.50
2018-11-06T07:20:14.023Z,35.00
2018-11-06T07:22:41.473Z,33.97
2018-11-06T07:25:09.259Z,34.83
2018-11-06T07:27:36.760Z,34.03
2018-11-06T07:30:04.211Z,35.80
2018-11-06T07:32:31.655Z,31.87
2018-11-06T07:34:59.246Z,33.70
2018-11-06T07:37:26.602Z,36.05
2018-11-06T07:39:54.128Z,35.83
2018-11-06T07:42:21.579Z,31.70
2018-11-06T07:44:49.075Z,34.43
2018-11-06T07:47:16.545Z,28.10
2018-11-06T07:49:44.046Z,33.63
2018-11-06T07:52:11.541Z,30.70
2018-11-06T07:54:39.154Z,32.60
2018-11-06T07:57:06.629Z,32.40
2018-11-06T07:59:34.067Z,33.13
2018-11-06T08:02:01.516Z,31.43
2018-11-06T08:04:29.059Z,32.50
2018-11-06T08:06:56.438Z,29.50
2018-11-06T08:09:23.923Z,28.05
2018-11-06T08:11:51.379Z,28.60
2018-11-06T08:14:18.864Z,34.58
2018-11-06T08:16:46.837Z,31.10
2018-11-06T08:19:14.290Z,32.03
2018-11-06T08:21:41.717Z,28.50
2018-11-06T08:24:09.250Z,32.57
2018-11-06T08:26:36.698Z,30.83
2018-11-06T08:29:04.202Z,30.57
2018-11-06T08:31:32.053Z,30.70
2018-11-06T08:33:59.070Z,29.13
2018-11-06T08:36:26.601Z,29.93
2018-11-06T08:38:53.998Z,32.42
2018-11-06T08:41:21.958Z,31.33
2018-11-06T08:43:49.456Z,31.03
2018-11-06T08:46:16.906Z,31.52
2018-11-06T08:48:44.350Z,29.10
2018-11-06T08:51:11.777Z,31.80
2018-11-06T08:53:39.209Z,26.47
2018-11-06T08:56:07.117Z,34.63
2018-11-06T08:58:34.550Z,34.38
2018-11-06T09:01:02.847Z,29.37
2018-11-06T09:03:30.318Z,29.00
2018-11-06T09:05:57.746Z,32.57
2018-11-06T09:08:25.190Z,32.35
2018-11-06T09:10:52.723Z,30.23
2018-11-06T09:13:20.186Z,30.45
2018-11-06T09:15:47.630Z,31.67
2018-11-06T09:18:15.101Z,27.05
2018-11-06T09:20:42.545Z,30.57
2018-11-06T09:23:10.006Z,31.10
2018-11-06T09:25:37.440Z,29.27
2018-11-06T09:28:04.994Z,31.77
2018-11-06T09:30:32.425Z,33.50
2018-11-06T09:32:59.862Z,34.60
2018-11-06T09:35:27.398Z,31.87
2018-11-06T09:37:54.938Z,30.80
2018-11-06T09:40:22.410Z,28.97
2018-11-06T09:42:49.850Z,31.40
2018-11-06T09:45:17.413Z,28.50
2018-11-06T09:47:44.889Z,27.80
2018-11-06T09:50:13.653Z,29.52
2018-11-06T09:52:41.503Z,28.10
2018-11-06T09:55:08.953Z,27.93
2018-11-06T09:57:36.387Z,25.63
2018-11-06T10:00:03.888Z,28.20
2018-11-06T10:02:31.250Z,24.77
2018-11-06T10:04:58.701Z,29.48
2018-11-06T10:07:26.325Z,28.40
2018-11-06T10:09:53.601Z,31.27
2018-11-06T10:12:21.058Z,25.40
2018-11-06T10:14:48.502Z,27.58
2018-11-06T10:17:15.931Z,22.87
2018-11-06T10:19:43.466Z,28.77
2018-11-06T10:22:10.910Z,24.63
2018-11-06T10:24:38.357Z,28.77
2018-11-06T10:27:05.789Z,26.97
2018-11-06T10:29:33.239Z,27.77
2018-11-06T10:32:00.672Z,24.57
2018-11-06T10:34:28.114Z,27.00
2018-11-06T10:36:55.572Z,25.97
2018-11-06T10:39:23.030Z,22.35
2018-11-06T10:41:50.551Z,23.90
2018-11-06T10:44:17.983Z,29.02
2018-11-06T10:46:45.414Z,22.30
2018-11-06T10:49:12.869Z,22.87
2018-11-06T10:51:40.309Z,23.47
2018-11-06T10:54:07.781Z,29.07
2018-11-06T10:56:35.221Z,32.97
2018-11-06T10:59:03.445Z,22.87
2018-11-06T11:01:36.369Z,23.90
2018-11-06T11:04:09.322Z,23.57
2018-11-06T11:06:36.698Z,22.43
2018-11-06T11:09:04.958Z,19.93
2018-11-06T11:11:32.477Z,24.40
2018-11-06T11:13:59.912Z,22.53
2018-11-06T11:16:27.390Z,24.80
2018-11-06T11:18:54.831Z,23.45
2018-11-06T11:21:22.265Z,21.10
2018-11-06T11:23:49.729Z,23.65
2018-11-06T11:26:17.163Z,20.63
2018-11-06T11:28:44.622Z,20.77
2018-11-06T11:31:12.054Z,20.90
2018-11-06T11:33:39.545Z,23.15
2018-11-06T11:36:06.962Z,21.00
2018-11-06T11:38:34.392Z,21.60
2018-11-06T11:41:01.862Z,24.87
2018-11-06T11:43:29.297Z,19.98
2018-11-06T11:45:56.793Z,26.37
2018-11-06T11:48:24.162Z,24.40
2018-11-06T11:50:51.590Z,22.67
2018-11-06T11:53:19.017Z,25.27
2018-11-06T11:55:46.505Z,21.07
2018-11-06T11:58:13.980Z,25.25
2018-11-06T12:00:41.439Z,22.47
2018-11-06T12:03:09.271Z,20.62
2018-11-06T12:05:36.753Z,23.40
2018-11-06T12:08:04.194Z,20.87
2018-11-06T12:10:31.670Z,19.87
2018-11-06T12:12:59.124Z,19.73
2018-11-06T12:15:26.573Z,19.10
2018-11-06T12:17:54.017Z,21.27
2018-11-06T12:20:21.461Z,21.68
2018-11-06T12:22:48.914Z,20.50
2018-11-06T12:25:16.608Z,22.17
2018-11-06T12:27:43.961Z,21.73
2018-11-06T12:30:12.646Z,23.70
2018-11-06T12:32:40.651Z,21.63
2018-11-06T12:35:08.781Z,20.53
2018-11-06T12:37:36.446Z,25.10
2018-11-06T12:40:03.907Z,22.20
2018-11-06T12:42:31.390Z,22.33
2018-11-06T12:44:58.835Z,23.03
2018-11-06T12:47:26.275Z,24.10
2018-11-06T12:49:53.732Z,24.30
2018-11-06T12:52:21.179Z,28.70
2018-11-06T12:54:48.622Z,25.30
2018-11-06T12:57:16.094Z,22.17
2018-11-06T12:59:43.543Z,22.00
2018-11-06T13:02:11.003Z,23.77
2018-11-06T13:04:38.453Z,23.60
2018-11-06T13:07:05.926Z,22.60
2018-11-06T13:09:33.368Z,25.43
2018-11-06T13:12:00.851Z,24.90
2018-11-06T13:14:28.286Z,24.27
2018-11-06T13:16:55.832Z,21.75
2018-11-06T13:19:23.250Z,21.23
2018-11-06T13:21:50.702Z,24.30
2018-11-06T13:24:18.143Z,25.37
2018-11-06T13:26:45.592Z,26.67
2018-11-06T13:29:13.094Z,24.67
2018-11-06T13:31:40.542Z,20.52
2018-11-06T13:34:08.000Z,22.00
2018-11-06T13:36:35.454Z,22.73
2018-11-06T13:39:02.922Z,21.00
2018-11-06T13:41:30.374Z,24.07
2018-11-06T13:43:58.102Z,25.30
2018-11-06T13:46:25.279Z,25.20
2018-11-06T13:48:52.722Z,23.80
2018-11-06T13:51:20.178Z,23.47
2018-11-06T13:53:47.626Z,24.60
2018-11-06T13:56:15.289Z,25.00
2018-11-06T13:58:43.094Z,21.93
2018-11-06T14:01:10.543Z,25.93
2018-11-06T14:03:37.993Z,21.70
2018-11-06T14:06:05.438Z,23.60
2018-11-06T14:08:33.094Z,25.52
2018-11-06T14:11:00.534Z,24.70
2018-11-06T14:13:27.990Z,25.40
2018-11-06T14:15:56.345Z,25.43
2018-11-06T14:18:23.786Z,25.10
2018-11-06T14:20:51.266Z,23.47
2018-11-06T14:23:18.678Z,25.57
2018-11-06T14:25:46.110Z,25.10
2018-11-06T14:28:13.558Z,26.48
2018-11-06T14:30:41.007Z,23.33
2018-11-06T14:33:08.506Z,23.67
2018-11-06T14:35:35.944Z,24.50
2018-11-06T14:38:03.379Z,24.55
2018-11-06T14:40:30.825Z,26.00
2018-11-06T14:42:58.446Z,27.98
2018-11-06T14:45:25.927Z,24.23
2018-11-06T14:47:53.444Z,28.65
2018-11-06T14:50:20.823Z,26.17
2018-11-06T14:52:48.282Z,22.93
2018-11-06T14:55:16.358Z,26.87
2018-11-06T14:57:43.915Z,25.27
2018-11-06T15:00:15.546Z,27.87
2018-11-06T15:02:44.351Z,24.40
2018-11-06T15:05:11.815Z,26.20
2018-11-06T15:07:39.276Z,23.97
2018-11-06T15:10:07.011Z,26.27
2018-11-06T15:12:34.476Z,24.67
2018-11-06T15:15:01.920Z,25.90
2018-11-06T15:17:29.409Z,23.40
2018-11-06T15:19:56.854Z,26.35
2018-11-06T15:22:24.291Z,27.27
2018-11-06T15:24:51.737Z,24.30
2018-11-06T15:27:19.338Z,28.07
2018-11-06T15:29:46.782Z,23.70
2018-11-06T15:32:14.234Z,27.87
2018-11-06T15:34:41.874Z,28.12
2018-11-06T15:37:09.346Z,25.40
2018-11-06T15:39:36.780Z,25.85
2018-11-06T15:42:04.258Z,29.83
2018-11-06T15:44:31.647Z,24.95
2018-11-06T15:46:59.101Z,28.50
2018-11-06T15:49:26.552Z,25.52
2018-11-06T15:51:54.000Z,26.00
2018-11-06T15:54:21.482Z,25.47
2018-11-06T15:56:48.905Z,23.83
2018-11-06T15:59:16.366Z,26.50
2018-11-06T16:01:43.853Z,28.67
2018-11-06T16:04:11.258Z,26.45
2018-11-06T16:06:38.713Z,29.17
2018-11-06T16:09:06.161Z,31.63
2018-11-06T16:11:33.882Z,26.47
2018-11-06T16:14:01.353Z,29.80
2018-11-06T16:16:28.800Z,27.37
2018-11-06T16:18:56.242Z,29.80
2018-11-06T16:21:23.685Z,29.27
2018-11-06T16:23:51.135Z,29.53
2018-11-06T16:26:18.581Z,32.93
2018-11-06T16:28:46.078Z,33.83
2018-11-06T16:31:13.532Z,31.57
2018-11-06T16:33:40.991Z,33.23
2018-11-06T16:36:08.450Z,30.90
2018-11-06T16:38:35.915Z,35.30
2018-11-06T16:41:03.397Z,30.82
2018-11-06T16:43:30.810Z,33.73
2018-11-06T16:45:58.271Z,33.98
2018-11-06T16:48:25.797Z,34.10
2018-11-06T16:50:53.178Z,32.90
2018-11-06T16:53:20.630Z,38.70
2018-11-06T16:55:48.087Z,34.07
2018-11-06T16:58:15.534Z,40.03
2018-11-06T17:00:43.051Z,38.95
2018-11-06T17:03:10.431Z,32.80
2018-11-06T17:05:37.877Z,34.43
2018-11-06T17:08:05.335Z,37.77
2018-11-06T17:10:32.770Z,34.57
2018-11-06T17:13:00.234Z,39.33
2018-11-06T17:15:27.659Z,41.15
2018-11-06T17:17:55.320Z,37.67
2018-11-06T17:20:23.196Z,36.00
2018-11-06T17:22:50.758Z,37.63
2018-11-06T17:25:19.547Z,35.03
2018-11-06T17:27:46.999Z,36.00
2018-11-06T17:30:16.401Z,34.93
2018-11-06T17:32:44.251Z,39.37
2018-11-06T17:35:12.231Z,38.77
2018-11-06T17:37:40.098Z,39.50
2018-11-06T17:40:07.537Z,35.63
2018-11-06T17:42:34.974Z,35.03
2018-11-06T17:45:02.495Z,39.67
2018-11-06T17:47:29.967Z,41.48
2018-11-06T17:49:57.400Z,38.20
2018-11-06T17:52:24.882Z,38.58
2018-11-06T17:54:52.361Z,37.63
2018-11-06T17:57:19.765Z,36.50
2018-11-06T17:59:47.324Z,38.97
2018-11-06T18:02:14.723Z,40.75
2018-11-06T18:04:42.227Z,34.47
2018-11-06T18:07:09.773Z,35.70
2018-11-06T18:09:37.279Z,35.87
2018-11-06T18:12:04.870Z,36.95
2018-11-06T18:14:32.323Z,40.87
2018-11-06T18:16:59.762Z,37.45
2018-11-06T18:19:27.206Z,37.23
2018-11-06T18:21:54.685Z,34.57
2018-11-06T18:24:22.122Z,35.27
2018-11-06T18:26:49.566Z,35.23
2018-11-06T18:29:17.030Z,34.73
2018-11-06T18:31:44.535Z,34.87
2018-11-06T18:34:11.893Z,35.90
2018-11-06T18:36:39.321Z,35.27
2018-11-06T18:39:06.815Z,34.80
2018-11-06T18:41:34.190Z,36.70
2018-11-06T18:44:01.671Z,33.23
2018-11-06T18:46:29.086Z,33.13
2018-11-06T18:48:56.591Z,36.17
2018-11-06T18:51:24.058Z,35.07
2018-11-06T18:53:51.519Z,32.48
2018-11-06T18:56:18.945Z,32.27
2018-11-06T18:58:46.422Z,34.40
2018-11-06T19:01:13.855Z,33.50
2018-11-06T19:03:41.296Z,37.80
2018-11-06T19:06:09.638Z,34.23
2018-11-06T19:08:37.178Z,36.60
2018-11-06T19:11:04.606Z,36.60
2018-11-06T19:13:32.054Z,40.28
2018-11-06T19:15:59.485Z,33.90
2018-11-06T19:18:26.921Z,32.10
2018-11-06T19:20:54.362Z,31.30
2018-11-06T19:23:21.795Z,35.75
2018-11-06T19:25:49.230Z,30.07
2018-11-06T19:28:16.676Z,33.20
2018-11-06T19:30:44.106Z,34.77
2018-11-06T19:33:11.653Z,33.53
2018-11-06T19:35:39.106Z,33.23
2018-11-06T19:38:06.534Z,34.65
2018-11-06T19:40:34.089Z,32.83
2018-11-06T19:43:01.462Z,34.80
2018-11-06T19:45:28.892Z,34.53
2018-11-06T19:47:56.329Z,32.03
2018-11-06T19:50:23.765Z,33.17
2018-11-06T19:52:51.298Z,35.40
2018-11-06T19:55:18.878Z,37.03
2018-11-06T19:57:46.393Z,33.47
2018-11-06T20:00:15.027Z,34.13
2018-11-06T20:02:43.566Z,34.20
2018-11-06T20:05:11.078Z,30.03
2018-11-06T20:07:38.618Z,32.20
2018-11-06T20:10:06.054Z,30.40
2018-11-06T20:12:33.534Z,31.77
2018-11-06T20:15:00.969Z,31.87
2018-11-06T20:17:28.727Z,31.53
2018-11-06T20:19:56.059Z,32.95
2018-11-06T20:22:23.506Z,31.53
2018-11-06T20:24:51.026Z,31.53
2018-11-06T20:27:18.526Z,31.20
2018-11-06T20:29:45.993Z,30.37
2018-11-06T20:32:13.399Z,33.97
2018-11-06T20:34:40.835Z,31.45
2018-11-06T20:37:08.260Z,25.80
2018-11-06T20:39:35.718Z,29.07
2018-11-06T20:42:03.118Z,30.00
2018-11-06T20:44:30.558Z,31.62
2018-11-06T20:46:58.048Z,28.73
2018-11-06T20:49:25.501Z,27.42
2018-11-06T20:51:52.962Z,27.57
2018-11-06T20:54:20.402Z,30.15
2018-11-06T20:56:47.872Z,28.27
2018-11-06T20:59:15.305Z,31.07
2018-11-06T21:01:42.794Z,23.23
2018-11-06T21:04:10.230Z,26.17
2018-11-06T21:06:37.661Z,26.93
2018-11-06T21:09:05.107Z,26.97
2018-11-06T21:11:32.741Z,24.57
2018-11-06T21:14:00.185Z,26.77
2018-11-06T21:16:27.618Z,25.40
2018-11-06T21:18:55.071Z,25.65
2018-11-06T21:21:22.505Z,30.77
2018-11-06T21:23:49.957Z,27.50
2018-11-06T21:26:17.559Z,25.17
2018-11-06T21:28:44.909Z,25.32
2018-11-06T21:31:12.386Z,26.20
2018-11-06T21:33:40.687Z,23.60
2018-11-06T21:36:08.126Z,27.53
2018-11-06T21:38:35.578Z,28.40
2018-11-06T21:41:03.034Z,25.73
2018-11-06T21:43:30.498Z,26.90
2018-11-06T21:45:57.933Z,24.53
2018-11-06T21:48:25.402Z,26.02
2018-11-06T21:50:52.842Z,26.47
2018-11-06T21:53:20.314Z,26.27
2018-11-06T21:55:47.747Z,26.23
2018-11-06T21:58:16.061Z,23.50
2018-11-06T22:00:43.537Z,24.40
2018-11-06T22:03:10.932Z,24.90
2018-11-06T22:05:38.375Z,23.77
2018-11-06T22:08:05.885Z,25.95
2018-11-06T22:10:33.332Z,26.00
2018-11-06T22:13:00.784Z,26.17
2018-11-06T22:15:28.262Z,25.43
2018-11-06T22:17:55.699Z,24.30
2018-11-06T22:20:23.129Z,24.23
2018-11-06T22:22:50.575Z,28.85
2018-11-06T22:25:18.094Z,25.40
2018-11-06T22:27:45.575Z,27.75
2018-11-06T22:30:14.102Z,24.27
2018-11-06T22:32:42.472Z,25.55
2018-11-06T22:35:11.175Z,24.23
2018-11-06T22:37:38.610Z,22.63
2018-11-06T22:40:06.057Z,24.87
2018-11-06T22:42:33.837Z,20.23
2018-11-06T22:45:01.274Z,25.13
2018-11-06T22:47:28.707Z,23.33
2018-11-06T22:49:56.137Z,25.17
2018-11-06T22:52:23.670Z,23.27
2018-11-06T22:54:51.172Z,24.90
2018-11-06T22:57:18.643Z,23.10
2018-11-06T22:59:46.070Z,26.57
2018-11-06T23:02:13.502Z,23.55
2018-11-06T23:04:40.929Z,22.93
2018-11-06T23:07:12.712Z,25.57
2018-11-06T23:09:39.995Z,23.50
2018-11-06T23:12:07.466Z,24.37
2018-11-06T23:14:34.898Z,24.33
2018-11-06T23:17:02.337Z,22.62
2018-11-06T23:19:29.773Z,24.73
2018-11-06T23:21:57.201Z,24.30
2018-11-06T23:24:24.654Z,24.37
2018-11-06T23:26:52.210Z,24.67
2018-11-06T23:29:19.674Z,23.83
2018-11-06T23:31:47.184Z,24.57
2018-11-06T23:34:14.553Z,27.93
2018-11-06T23:36:42.042Z,24.98
2018-11-06T23:39:09.773Z,26.80
2018-11-06T23:41:37.444Z,23.27
2018-11-06T23:44:04.874Z,25.72
2018-11-06T23:46:32.311Z,23.10
2018-11-06T23:48:59.744Z,25.10
2018-11-06T23:51:27.166Z,29.00
2018-11-06T23:53:54.597Z,23.92
2018-11-06T23:56:22.067Z,25.47
2018-11-06T23:58:49.485Z,23.23
